Date,TemperatureHighF,TemperatureAvgF,TemperatureLowF,DewpointHighF,DewpointAvgF,DewpointLowF,HumidityHigh,HumidityAvg,HumidityLow,PressureMaxIn,PressureMinIn,WindSpeedMaxMPH,WindSpeedAvgMPH,GustSpeedMaxMPH,PrecipitationSumIn
2013-1-30,77.0,75.0,72.0,69.0,67.5,66.0,87,78,71,30.12,30.00,19,11,29,0.00
2013-1-31,74.0,63.9,58.0,69.0,53.8,40.0,93,71,47,30.21,30.01,9,5,17,0.00
2013-2-1,70.0,62.3,52.0,57.0,48.8,39.0,71,61,52,30.30,30.19,14,6,23,0.00
2013-2-2,73.0,64.6,56.0,54.0,48.7,36.0,72,57,46,30.29,30.15,8,4,12,0.00
2013-2-3,71.0,63.8,57.0,55.0,49.0,40.0,81,60,36,30.20,30.11,13,4,20,0.00
2013-2-4,73.0,63.1,51.0,57.0,48.1,38.0,74,59,37,30.17,30.06,9,4,14,0.00
2013-2-5,76.0,68.0,58.0,64.0,57.5,51.0,80,70,51,30.12,30.03,8,4,13,0.00
2013-2-6,79.0,71.1,63.0,67.0,63.1,59.0,91,77,62,30.14,30.05,11,4,16,0.00
2013-2-7,78.0,74.0,71.0,69.0,65.3,62.0,79,75,69,30.11,29.96,11,7,18,0.00
2013-2-8,81.0,73.8,69.0,69.0,66.0,60.0,90,78,49,30.06,29.94,9,5,17,0.00
2013-2-9,78.0,72.4,66.0,69.0,64.5,61.0,91,77,60,30.20,30.05,10,4,16,0.00
2013-2-10,73.0,71.4,68.0,65.0,62.6,61.0,86,74,68,30.29,30.18,14,11,22,0.01
2013-2-11,76.0,73.3,71.0,66.0,64.0,62.0,79,73,66,30.25,30.14,16,11,20,0.01
2013-2-12,79.0,74.2,69.0,71.0,67.6,64.0,87,80,72,30.15,30.00,16,9,28,0.00
2013-2-13,78.0,74.9,70.0,73.0,70.2,67.0,93,85,77,30.04,29.91,16,8,29,0.00
2013-2-14,76.0,69.3,63.0,71.0,66.7,61.0,96,91,84,30.03,29.89,12,4,23,1.87
2013-2-15,73.0,66.8,64.0,67.0,64.1,62.0,95,91,79,30.05,29.97,15,3,27,0.89
2013-2-16,71.0,64.4,55.0,63.0,55.6,42.0,95,75,47,30.11,29.90,14,6,29,0.03
2013-2-17,56.0,50.7,44.0,42.0,30.1,19.0,65,46,29,30.33,30.11,14,8,27,0.00
2013-2-18,68.0,59.0,47.0,58.0,45.7,32.0,72,61,53,30.36,30.24,15,8,23,0.00
2013-2-19,76.0,71.3,66.0,66.0,61.0,54.0,85,70,59,30.24,30.11,17,10,24,0.00
2013-2-20,78.0,70.1,64.0,68.0,64.6,60.0,94,83,67,30.14,30.04,10,4,15,0.00
2013-2-21,79.0,74.6,72.0,69.0,67.4,65.0,84,78,69,30.13,30.03,12,6,16,0.00
2013-2-22,79.0,75.9,74.0,73.0,70.1,67.0,87,82,77,30.13,30.04,17,12,24,0.00
2013-2-23,79.0,75.4,70.0,73.0,70.4,68.0,93,84,76,30.08,29.94,17,12,27,0.50
2013-2-24,84.0,75.9,71.0,75.0,71.6,68.0,96,87,64,30.03,29.92,12,6,20,0.50
2013-2-25,81.0,75.6,71.0,75.0,71.1,68.0,91,86,77,29.95,29.85,15,7,23,0.00
2013-2-26,80.0,77.4,75.0,74.0,71.9,70.0,91,83,73,29.91,29.82,17,10,31,0.00
2013-2-27,76.0,69.4,62.0,73.0,64.0,59.0,94,83,60,29.99,29.89,9,4,18,0.99
2013-2-28,71.0,63.7,58.0,62.0,53.0,46.0,94,70,43,30.03,29.93,8,4,16,0.73
2013-3-1,64.0,61.4,58.0,56.0,49.3,45.0,78,65,54,30.01,29.93,8,4,15,0.00
2013-3-2,65.0,57.2,52.0,48.0,41.0,34.0,71,55,41,30.06,29.98,15,7,30,0.00
2013-3-3,60.0,53.5,49.0,43.0,39.7,37.0,72,60,47,30.17,30.00,12,6,30,0.00
2013-3-4,62.0,53.0,43.0,47.0,38.1,30.0,77,58,32,30.24,30.15,12,6,22,0.00
2013-3-5,72.0,63.7,53.0,58.0,52.6,43.0,78,68,58,30.21,30.11,13,5,20,0.00
2013-3-6,75.0,64.6,54.0,62.0,50.5,33.0,91,64,28,30.12,29.97,16,7,26,0.00
2013-3-7,68.0,58.2,48.0,56.0,45.9,36.0,85,64,48,30.21,30.10,10,5,23,0.00
2013-3-8,70.0,62.5,54.0,54.0,51.4,46.0,86,68,48,30.24,30.14,11,4,15,0.00
2013-3-9,74.0,65.2,57.0,58.0,54.1,49.0,83,68,57,30.23,30.13,7,3,15,0.00
2013-3-10,73.0,69.8,67.0,62.0,57.7,54.0,76,66,58,30.19,30.11,11,6,18,0.00
2013-3-11,76.0,71.3,69.0,63.0,61.0,59.0,75,70,60,30.15,30.03,14,11,20,0.00
2013-3-14,65.0,61.3,55.0,50.0,47.6,41.0,76,61,48,30.23,30.17,18,9,29,0.00
2013-3-15,67.0,61.3,53.0,56.0,50.4,44.0,77,68,59,30.28,30.19,13,6,19,0.00
2013-3-16,73.0,65.6,57.0,57.0,54.0,51.0,84,67,48,30.23,30.12,12,5,20,0.00
2013-3-17,74.0,68.3,61.0,62.0,58.2,55.0,80,71,59,30.18,30.07,13,6,18,0.00
2013-3-18,77.0,72.2,67.0,69.0,65.5,62.0,93,80,73,30.11,29.99,16,9,24,0.41
2013-3-19,77.0,71.8,69.0,69.0,67.3,64.0,93,86,71,30.04,29.88,13,3,26,0.41
2013-3-20,78.0,71.8,66.0,71.0,66.1,56.0,95,83,52,30.00,29.83,10,3,23,0.01
2013-3-21,68.0,65.4,61.0,61.0,54.7,48.0,91,70,49,29.97,29.85,15,6,22,0.01
2013-3-22,74.0,68.6,60.0,70.0,59.1,52.0,89,72,61,30.04,29.93,12,6,20,0.12
2013-3-23,79.0,75.6,72.0,74.0,72.0,70.0,92,88,83,30.02,29.83,17,7,29,0.12
2013-3-24,88.0,78.5,71.0,73.0,71.0,65.0,95,80,55,29.92,29.70,19,9,34,0.56
2013-3-25,79.0,73.0,66.0,72.0,59.1,36.0,95,67,30,30.01,29.77,10,4,17,0.56
2013-3-26,67.0,60.1,53.0,42.0,36.5,30.0,58,42,26,30.23,30.01,13,8,25,0.00
2013-3-27,63.0,55.8,47.0,48.0,41.3,31.0,69,58,43,30.28,30.20,13,6,22,0.00
2013-3-28,68.0,61.0,50.0,51.0,45.1,35.0,77,57,29,30.30,30.21,13,5,19,0.00
2013-3-29,74.0,65.9,56.0,55.0,50.4,43.0,72,58,44,30.32,30.24,11,4,18,0.00
2013-3-30,73.0,68.8,66.0,57.0,53.1,50.0,66,58,46,30.30,30.20,10,5,15,0.00
2013-3-31,77.0,72.2,64.0,67.0,61.4,-99.9,82,72,64,30.23,30.07,13,10,21,0.00
2013-4-1,85.0,75.7,72.0,72.0,66.8,61.0,88,75,45,30.09,29.97,17,8,27,0.00
2013-4-2,81.0,73.1,66.0,69.0,66.1,64.0,95,79,62,30.10,30.02,7,3,12,0.00
2013-4-3,78.0,75.5,73.0,70.0,68.6,66.0,85,79,74,30.09,30.02,13,8,18,0.00
2013-4-4,80.0,74.6,68.0,74.0,70.0,66.0,94,86,78,30.08,29.93,15,10,26,0.56
2013-4-5,74.0,68.8,66.0,71.0,65.7,64.0,93,89,81,30.02,29.85,18,6,29,0.90
2013-4-6,77.0,68.6,59.0,66.0,61.7,56.0,92,79,62,30.11,29.93,14,5,20,0.04
2013-4-7,77.0,73.4,71.0,65.0,62.9,61.0,77,70,61,30.17,30.06,9,5,18,0.00
2013-4-8,79.0,74.6,72.0,66.0,62.9,58.0,77,67,61,30.16,30.07,9,4,11,0.00
2013-4-9,78.0,75.0,73.0,69.0,67.3,66.0,82,77,74,30.18,30.08,12,7,18,0.00
2013-4-10,80.0,76.2,74.0,74.0,70.3,67.0,88,82,77,30.13,30.03,16,9,22,0.00
2013-4-11,79.0,76.6,75.0,73.0,71.5,70.0,89,84,80,30.05,29.93,17,14,25,0.00
2013-4-12,82.0,78.5,76.0,77.0,74.4,73.0,90,87,82,29.97,29.88,19,12,30,0.00
2013-4-13,83.0,77.0,73.0,75.0,72.2,68.0,94,85,73,29.99,29.90,13,4,24,0.18
2013-4-14,83.0,78.6,74.0,77.0,74.2,68.0,94,86,78,30.00,29.93,12,7,18,0.18
2013-4-15,84.0,76.6,70.0,77.0,72.4,68.0,94,87,75,30.08,29.96,12,4,21,0.82
2013-4-16,83.0,77.8,72.0,76.0,73.1,69.0,93,86,78,30.15,30.06,7,3,14,0.85
2013-4-17,83.0,77.8,74.0,71.0,68.7,66.0,84,74,62,30.14,30.05,5,2,14,0.03
2013-4-18,82.0,78.5,76.0,74.0,71.2,67.0,85,78,74,30.09,30.01,16,9,21,0.00
2013-4-19,83.0,79.9,77.0,75.0,73.2,71.0,89,80,71,30.08,29.99,18,13,27,0.02
2013-4-20,84.0,77.8,73.0,77.0,73.1,69.0,91,86,76,30.11,30.00,15,6,24,0.02
2013-4-21,81.0,76.8,72.0,74.0,71.7,70.0,93,85,73,30.13,30.01,14,6,20,0.01
2013-4-22,81.0,74.7,70.0,72.0,69.5,67.0,93,84,69,30.07,29.96,19,6,27,0.42
2013-4-23,83.0,76.7,72.0,69.0,66.6,61.0,88,71,61,30.11,29.98,14,7,25,0.01
2013-4-24,81.0,76.7,73.0,67.0,64.4,61.0,74,66,58,30.16,30.05,9,4,15,0.00
2013-4-25,82.0,76.8,73.0,66.0,63.3,61.0,73,64,53,30.22,30.10,10,4,15,0.00
2013-4-26,81.0,76.3,72.0,68.0,65.1,62.0,76,68,61,30.25,30.14,8,3,13,0.00
2013-4-27,82.0,76.8,74.0,68.0,65.3,62.0,76,68,58,30.23,30.11,9,4,16,0.00
2013-4-28,79.0,76.1,73.0,66.0,63.6,-99.9,76,68,59,30.15,30.03,13,9,19,0.00
2013-4-29,81.0,77.1,75.0,72.0,68.3,64.0,84,75,65,30.06,29.96,14,10,21,0.00
2013-4-30,81.0,75.6,67.0,72.0,70.1,65.0,95,83,75,30.03,29.95,13,5,23,3.09
2013-5-1,82.0,75.6,70.0,74.0,70.5,67.0,93,84,76,30.03,29.96,8,4,16,0.27
2013-5-2,77.0,73.5,69.0,73.0,70.4,67.0,95,90,82,29.97,29.82,18,9,29,1.38
2013-5-3,86.0,74.2,68.0,72.0,69.2,67.0,97,85,55,29.84,29.70,16,5,24,4.36
2013-5-4,86.0,76.1,68.0,70.0,68.0,66.0,95,78,54,29.82,29.71,9,4,17,0.12
2013-5-5,82.0,74.0,68.0,68.0,62.8,50.0,94,70,37,29.95,29.78,9,4,17,0.01
2013-5-6,83.0,72.3,62.0,65.0,60.3,52.0,87,67,50,30.04,29.95,9,4,15,0.00
2013-5-7,83.0,72.4,62.0,67.0,60.4,55.0,78,67,45,30.08,30.00,11,5,18,0.00
2013-5-8,80.0,72.9,62.0,67.0,62.3,58.0,90,71,51,30.16,30.06,7,3,12,0.00
2013-5-9,83.0,76.6,68.0,73.0,68.1,61.0,85,75,66,30.17,30.09,9,4,14,0.00
2013-5-10,83.0,78.6,76.0,75.0,70.5,-99.9,87,80,71,30.16,30.05,12,7,17,0.00
2013-5-11,83.0,78.9,73.0,76.0,73.6,69.0,92,84,73,30.10,30.01,17,7,26,0.02
2013-5-12,83.0,76.4,71.0,76.0,71.1,-99.9,94,86,71,30.09,29.96,16,6,27,1.03
2013-5-13,87.0,77.0,72.0,72.0,69.2,66.0,95,78,53,30.11,30.02,18,5,22,1.02
2013-5-14,81.0,76.7,74.0,67.0,61.5,56.0,71,60,49,30.21,30.09,11,4,18,0.01
2013-5-15,82.0,76.1,73.0,67.0,62.5,58.0,73,63,49,30.22,30.12,11,5,17,0.00
2013-5-16,80.0,70.7,73.0,67.0,41.2,-99.9,75,64,57,30.15,30.07,11,6,18,0.00
2013-5-17,84.0,77.5,76.0,74.0,65.1,-99.9,85,76,67,30.12,30.04,10,6,15,0.00
2013-5-18,82.0,78.7,75.0,75.0,72.0,70.0,87,80,73,30.14,30.06,11,6,16,0.00
2013-5-19,83.0,79.2,77.0,72.0,70.5,69.0,81,75,66,30.13,30.03,9,6,13,0.00
2013-5-20,79.0,76.3,69.0,73.0,71.6,67.0,95,85,80,30.11,30.01,13,6,26,4.82
2013-5-21,80.0,75.0,69.0,74.0,70.6,67.0,95,87,78,30.10,29.96,17,8,31,5.01
2013-5-22,81.0,77.2,74.0,74.0,71.9,68.0,88,84,72,30.01,29.93,16,7,24,0.05
2013-5-23,92.0,81.1,74.0,76.0,72.8,66.0,95,78,44,30.03,29.93,9,5,15,0.05
2013-5-24,89.0,81.5,75.0,76.0,74.0,71.0,92,79,62,30.08,29.97,8,3,14,0.24
2013-5-25,85.0,79.9,76.0,75.0,69.0,66.0,87,70,54,30.19,30.07,7,4,14,0.02
2013-5-26,86.0,79.4,75.0,70.0,66.6,61.0,76,65,55,30.21,30.14,10,3,14,0.00
2013-5-27,85.0,79.0,76.0,74.0,70.2,64.0,88,75,67,30.18,30.10,16,6,20,0.01
2013-5-28,81.0,77.8,73.0,74.0,72.5,70.0,92,84,79,30.14,30.07,19,12,31,0.03
2013-5-29,80.0,76.6,72.0,74.0,72.3,69.0,95,86,77,30.11,30.04,21,13,30,0.53
2013-5-30,80.0,77.6,73.0,74.0,72.2,68.0,94,84,76,30.11,30.03,25,16,34,0.03
2013-5-31,82.0,77.6,74.0,76.0,73.3,71.0,96,87,79,30.09,30.03,20,12,29,0.69
2013-6-1,82.0,78.3,76.0,76.0,74.4,73.0,93,88,81,30.06,29.99,14,6,19,0.50
2013-6-2,85.0,78.9,74.0,78.0,73.1,-99.9,93,86,74,30.03,29.95,14,3,24,0.11
2013-6-3,85.0,79.2,75.0,77.0,74.0,72.0,92,84,74,30.06,29.94,12,3,25,0.15
2013-6-4,85.0,78.8,75.0,77.0,74.0,72.0,93,86,73,30.08,29.98,9,2,11,0.39
2013-6-5,82.0,80.3,80.0,77.0,75.7,74.0,90,86,82,30.04,29.92,11,6,16,0.03
2013-6-6,84.0,79.0,73.0,79.0,75.5,70.0,96,89,82,29.94,29.80,27,12,43,0.13
2013-6-7,89.0,77.7,74.0,77.0,73.4,72.0,95,87,64,30.01,29.86,13,5,23,0.67
2013-6-8,83.0,77.7,74.0,78.0,74.8,72.0,96,91,81,30.13,30.00,8,3,14,1.98
2013-6-9,84.0,81.1,79.0,77.0,75.3,73.0,91,83,76,30.14,30.07,12,9,18,0.04
2013-6-10,85.0,82.0,80.0,78.0,76.2,75.0,88,83,76,30.12,30.04,12,7,17,0.04
2013-6-11,87.0,82.0,80.0,78.0,76.5,74.0,90,84,69,30.11,30.04,11,6,23,0.00
2013-6-12,86.0,81.2,79.0,79.0,76.3,74.0,90,86,77,30.10,30.05,8,2,12,0.00
2013-6-13,87.0,80.9,76.0,78.0,74.8,70.0,96,83,68,30.07,29.96,10,3,19,0.00
2013-6-14,93.0,81.4,76.0,78.0,73.4,70.0,93,78,51,29.99,29.90,14,5,20,0.01
2013-6-15,90.0,81.9,76.0,78.0,75.0,71.0,93,80,64,30.08,29.95,6,3,10,0.01
2013-6-16,87.0,83.0,79.0,78.0,76.3,73.0,88,80,71,30.12,30.05,9,4,13,0.00
2013-6-17,88.0,83.5,81.0,79.0,76.7,75.0,86,80,68,30.11,30.04,11,6,16,0.00
2013-6-18,87.0,83.6,80.0,78.0,76.5,75.0,86,79,72,30.09,30.01,11,7,18,0.00
2013-6-19,87.0,82.9,79.0,78.0,76.2,74.0,91,81,72,30.08,30.01,12,6,19,0.00
2013-6-20,87.0,82.6,77.0,77.0,74.8,69.0,85,78,69,30.11,30.05,10,5,21,0.00
2013-6-22,89.0,85.1,82.0,76.0,74.9,73.0,81,72,63,30.14,30.07,10,5,15,0.00
2013-6-23,85.0,82.3,77.0,78.0,74.8,69.0,85,78,71,30.15,30.08,21,9,30,0.03
2013-6-24,85.0,82.7,81.0,77.0,74.5,72.0,80,77,71,30.19,30.11,13,8,19,0.03
2013-6-25,86.0,82.2,80.0,78.0,75.5,72.0,85,81,73,30.16,30.07,15,8,20,0.07
2013-6-26,86.0,82.4,79.0,77.0,75.5,74.0,89,80,71,30.11,30.04,13,8,19,0.09
2013-6-27,86.0,81.5,78.0,78.0,75.2,70.0,86,81,69,30.09,29.98,9,4,15,0.03
2013-6-28,86.0,81.5,73.0,78.0,75.2,71.0,96,82,71,30.02,29.89,12,5,19,1.55
2013-6-29,87.0,80.4,74.0,78.0,74.9,70.0,95,84,72,29.95,29.84,15,5,25,1.50
2013-6-30,87.0,80.4,75.0,78.0,74.7,71.0,93,83,65,29.98,29.87,18,7,31,0.06
2013-7-1,85.0,81.5,78.0,78.0,75.8,73.0,90,83,74,30.06,29.94,18,9,37,0.06
2013-7-2,86.0,82.1,79.0,79.0,76.8,74.0,88,84,77,30.14,30.01,14,8,20,0.09
2013-7-3,84.0,80.4,75.0,78.0,75.5,72.0,91,85,79,30.16,30.08,19,10,35,0.37
2013-7-4,84.0,81.7,78.0,78.0,75.9,73.0,89,83,78,30.18,30.10,15,11,27,0.27
2013-7-5,84.0,81.5,77.0,77.0,75.6,72.0,90,82,76,30.18,30.08,17,11,26,0.02
2013-7-6,85.0,82.1,80.0,77.0,75.0,74.0,83,79,75,30.15,30.06,13,10,21,0.01
2013-7-7,86.0,82.8,80.0,77.0,75.4,74.0,86,79,71,30.13,30.06,13,8,18,0.01
2013-7-8,89.0,82.8,81.0,76.0,74.6,72.0,83,77,62,30.18,30.11,9,6,13,0.00
2013-7-9,86.0,81.2,76.0,77.0,73.6,70.0,88,78,68,30.17,30.07,9,4,15,0.35
2013-7-10,84.0,77.0,72.0,76.0,70.2,-99.9,93,83,74,30.11,30.03,11,5,17,0.54
2013-7-11,87.0,82.1,79.0,78.0,75.3,71.0,87,80,71,30.08,29.98,10,5,16,0.01
2013-7-12,89.0,80.5,73.0,77.0,74.5,70.0,94,83,64,30.00,29.93,12,2,20,0.90
2013-7-13,84.0,76.8,73.0,77.0,73.3,71.0,95,89,77,30.06,29.95,14,3,22,1.51
2013-7-14,86.0,78.8,73.0,77.0,73.5,71.0,94,84,69,30.12,30.01,13,6,22,0.52
2013-7-15,88.0,79.9,74.0,77.0,73.8,71.0,92,82,66,30.12,30.03,14,3,19,0.11
2013-7-16,82.0,77.3,73.0,75.0,73.1,70.0,95,87,72,30.18,30.09,27,10,39,0.57
2013-7-17,81.0,78.9,76.0,75.0,73.3,71.0,90,83,77,30.16,30.08,14,8,21,0.50
2013-7-18,83.0,77.3,73.0,76.0,73.0,69.0,94,87,76,30.16,30.09,16,5,23,0.49
2013-7-19,85.0,81.0,75.0,78.0,75.8,71.0,94,85,76,30.16,30.07,11,7,17,0.30
2013-7-20,85.0,81.4,78.0,79.0,75.4,-99.9,89,84,78,30.15,30.07,15,8,24,0.07
2013-7-21,87.0,81.3,76.0,79.0,76.2,71.0,93,85,77,30.19,30.08,9,4,16,0.28
2013-7-22,87.0,82.5,77.0,78.0,76.1,73.0,91,81,72,30.18,30.09,11,6,16,0.28
2013-7-23,88.0,83.0,78.0,79.0,76.3,74.0,90,81,66,30.14,29.99,12,6,21,0.00
2013-7-24,92.0,84.3,77.0,78.0,73.9,65.0,91,73,43,30.04,29.93,10,4,23,0.00
2013-7-25,92.0,83.5,77.0,76.0,74.3,72.0,90,75,56,30.03,29.94,7,4,16,0.00
2013-7-26,91.0,82.3,78.0,78.0,75.3,72.0,90,80,59,30.05,29.96,11,4,20,0.03
2013-7-27,88.0,80.2,77.0,79.0,75.1,73.0,91,85,72,30.03,29.96,14,3,22,0.02
2013-7-28,86.0,79.8,75.0,78.0,75.1,72.0,91,86,73,30.09,29.98,11,3,22,0.35
2013-7-29,88.0,82.0,78.0,79.0,76.1,74.0,91,83,71,30.16,30.06,11,4,19,0.01
2013-7-30,88.0,83.8,77.0,79.0,77.4,71.0,90,81,73,30.19,30.11,9,5,16,0.02
2013-7-31,87.0,84.0,82.0,78.0,76.3,74.0,85,78,71,30.15,30.03,11,7,17,0.01
2013-8-1,88.0,83.3,79.0,77.0,74.7,73.0,84,76,66,30.08,29.98,13,7,19,0.00
2013-8-2,89.0,80.3,76.0,77.0,73.9,67.0,89,81,65,30.08,29.95,11,4,20,0.26
2013-8-3,82.0,78.1,74.0,76.0,74.3,72.0,93,88,77,30.15,30.05,9,3,16,0.52
2013-8-4,89.0,80.2,71.0,79.0,74.9,70.0,97,84,71,30.15,30.01,20,3,39,0.53
2013-8-5,90.0,80.0,76.0,80.0,75.3,71.0,94,86,67,30.06,29.98,9,3,22,0.87
2013-8-6,88.0,81.7,76.0,79.0,75.9,73.0,93,83,71,30.01,29.92,7,2,11,0.34
2013-8-7,87.0,83.1,80.0,79.0,76.5,74.0,87,81,72,30.01,29.93,15,5,24,0.15
2013-8-8,87.0,84.0,82.0,78.0,76.7,74.0,84,79,68,30.05,29.96,13,9,20,0.05
2013-8-9,86.0,82.8,80.0,78.0,75.3,73.0,87,78,69,30.09,29.98,14,9,22,0.02
2013-8-10,87.0,83.8,81.0,78.0,76.9,75.0,85,80,74,30.15,30.07,11,8,16,0.01
2013-8-11,89.0,84.2,82.0,78.0,76.9,75.0,84,79,70,30.16,30.09,9,5,15,0.00
2013-8-12,92.0,84.7,81.0,78.0,75.7,73.0,83,75,61,30.14,30.04,7,3,11,0.00
2013-8-13,88.0,83.4,82.0,79.0,74.5,-99.9,84,77,69,30.07,29.98,12,6,16,0.00
2013-8-14,88.0,83.0,80.0,78.0,73.9,-99.9,86,76,68,30.06,29.96,11,6,20,0.00
2013-8-15,86.0,75.8,75.0,78.0,62.1,-99.9,93,79,73,30.09,29.99,17,6,23,0.08
2013-8-16,88.0,81.8,79.0,80.0,73.7,-99.9,88,81,72,30.09,30.01,8,4,14,0.01
2013-8-17,87.0,84.6,83.0,80.0,78.3,77.0,87,82,75,30.11,30.03,9,7,14,0.00
2013-8-18,87.0,82.8,77.0,80.0,75.4,-99.9,90,80,74,30.11,30.02,24,8,29,0.07
2013-8-19,87.0,80.3,82.0,79.0,66.0,-99.9,87,80,73,30.10,29.99,12,7,17,0.07
2013-8-20,88.0,83.1,81.0,79.0,74.9,-99.9,87,79,73,30.09,30.01,11,6,16,0.09
2013-8-21,85.0,83.1,79.0,79.0,77.6,74.0,88,84,79,30.11,30.03,16,8,23,0.11
2013-8-22,87.0,84.3,82.0,79.0,77.6,74.0,86,81,75,30.09,29.99,11,7,15,0.04
2013-8-23,88.0,83.9,82.0,79.0,76.8,74.0,86,79,72,30.05,29.97,11,5,19,0.04
2013-8-24,89.0,84.5,82.0,78.0,76.6,74.0,85,77,69,30.13,30.01,8,5,14,0.00
2013-8-25,88.0,82.0,78.0,78.0,73.8,-99.9,88,78,69,30.18,30.06,7,3,14,0.00
2013-8-26,90.0,82.0,76.0,78.0,75.1,70.0,89,80,66,30.15,30.04,17,3,28,0.10
2013-8-27,83.0,78.4,75.0,75.0,73.5,71.0,91,85,73,30.08,30.01,8,2,13,0.30
2013-8-28,87.0,82.9,75.0,76.0,74.3,70.0,88,76,65,30.06,29.98,14,4,24,0.13
2013-8-29,89.0,81.7,75.0,78.0,75.3,71.0,90,81,69,30.05,29.96,9,4,13,0.12
2013-8-30,88.0,83.1,78.0,77.0,75.5,73.0,90,79,62,30.03,29.93,12,5,17,0.00
2013-8-31,87.0,81.6,75.0,79.0,74.9,70.0,88,80,73,30.01,29.94,12,4,22,0.00
2013-9-1,88.0,80.8,77.0,79.0,73.8,-99.9,91,81,73,30.03,29.96,9,2,14,0.00
2013-9-2,88.0,79.8,72.0,79.0,75.0,70.0,96,86,71,30.06,29.97,15,2,22,1.17
2013-9-3,91.0,81.7,74.0,78.0,74.8,72.0,93,80,66,30.05,29.96,7,3,11,0.01
2013-9-4,89.0,84.2,82.0,80.0,77.5,75.0,86,80,74,30.09,29.98,7,3,13,0.00
2013-9-5,89.0,84.7,82.0,79.0,77.7,76.0,86,80,71,30.10,30.02,10,4,13,0.00
2013-9-6,92.0,85.4,83.0,80.0,77.8,76.0,86,78,64,30.07,29.96,7,3,10,0.00
2013-9-7,89.0,79.8,73.0,79.0,74.7,70.0,93,85,68,30.01,29.93,13,2,24,0.53
2013-9-8,88.0,80.0,75.0,78.0,72.7,-99.9,94,81,69,29.97,29.88,8,2,12,0.01
2013-9-9,90.0,82.1,76.0,78.0,74.9,70.0,88,79,67,30.03,29.92,13,2,17,0.23
2013-9-10,90.0,82.8,75.0,78.0,75.5,72.0,91,79,65,30.07,29.98,16,4,27,0.01
2013-9-11,84.0,80.9,76.0,77.0,75.1,73.0,91,83,74,30.08,29.99,14,5,26,0.06
2013-9-12,84.0,80.5,76.0,77.0,75.4,73.0,93,85,78,30.04,29.91,8,3,14,1.64
2013-9-13,89.0,81.7,75.0,79.0,75.6,72.0,95,82,70,29.95,29.83,7,3,11,2.09
2013-9-14,89.0,83.5,78.0,78.0,75.7,74.0,91,78,63,29.99,29.84,10,4,14,0.01
2013-9-15,86.0,80.7,78.0,79.0,74.2,-99.9,94,83,76,30.08,29.93,12,4,22,0.30
2013-9-16,85.0,81.1,79.0,78.0,76.4,74.0,90,86,78,30.07,29.98,16,6,25,0.36
2013-9-17,81.0,78.2,73.0,77.0,75.0,71.0,97,90,83,30.06,29.94,16,4,24,1.11
2013-9-18,81.0,78.4,74.0,76.0,74.5,72.0,94,88,83,30.03,29.94,14,3,19,3.95
2013-9-19,91.0,81.8,74.0,79.0,75.2,72.0,95,81,65,30.03,29.95,6,2,12,1.01
2013-9-20,86.0,81.7,77.0,75.0,71.2,68.0,86,71,62,30.03,29.93,11,3,16,0.06
2013-9-21,87.0,81.9,78.0,75.0,72.3,70.0,81,73,66,29.95,29.81,7,2,12,0.06
2013-9-22,87.0,81.4,77.0,78.0,74.1,-99.9,90,80,72,29.89,29.79,12,5,21,0.00
2013-9-23,86.0,80.7,77.0,80.0,76.2,73.0,94,87,78,30.00,29.88,11,2,20,0.20
2013-9-24,89.0,79.9,75.0,82.0,75.5,71.0,95,87,73,30.02,29.89,13,3,22,1.65
2013-9-25,88.0,80.3,75.0,78.0,73.5,71.0,92,81,60,29.93,29.81,11,4,21,0.07
2013-9-26,89.0,80.1,76.0,79.0,75.8,73.0,94,87,69,29.88,29.80,13,4,34,0.28
2013-9-27,86.0,79.6,74.0,76.0,73.9,70.0,95,83,62,29.95,29.84,15,4,21,0.03
2013-9-28,90.0,81.4,75.0,77.0,73.5,69.0,92,77,63,29.98,29.90,8,2,19,0.37
2013-9-29,90.0,82.0,79.0,74.0,69.2,-99.9,75,67,57,29.99,29.91,5,1,10,0.34
2013-9-30,89.0,82.4,79.0,75.0,71.5,70.0,76,70,59,30.03,29.93,8,4,13,0.00
2013-10-1,81.0,81.0,81.0,73.0,72.8,72.0,78,76,74,30.06,30.02,8,4,14,0.00
2013-10-2,90.0,83.6,80.0,76.0,73.6,72.0,81,72,61,30.07,29.99,9,2,14,0.00
2013-10-3,87.0,82.0,79.0,75.0,73.4,71.0,83,75,64,30.09,29.98,8,3,13,0.00
2013-10-4,91.0,83.1,80.0,75.0,72.3,68.0,79,71,59,30.09,30.01,7,3,11,0.00
2013-10-5,90.0,82.5,75.0,76.0,72.7,70.0,89,73,61,30.06,29.96,5,1,9,0.00
2013-10-6,87.0,82.4,80.0,77.0,74.2,71.0,84,76,66,29.99,29.90,8,5,13,0.13
2013-10-7,87.0,79.2,73.0,77.0,73.0,71.0,94,82,61,29.93,29.83,13,5,34,0.22
2013-10-8,91.0,80.9,76.0,78.0,74.4,71.0,96,82,60,29.95,29.87,8,4,15,0.19
2013-10-9,82.0,77.2,73.0,76.0,72.8,69.0,93,86,79,30.01,29.93,13,5,21,0.02
2013-10-10,84.0,78.9,72.0,75.0,71.9,69.0,93,80,67,30.03,29.97,13,5,19,0.09
2013-10-11,85.0,80.4,77.0,70.0,68.7,66.0,77,68,59,30.04,29.97,10,2,13,0.00
2013-10-12,88.0,79.9,72.0,71.0,68.6,66.0,86,69,57,30.05,29.98,7,2,11,0.00
2013-10-13,83.0,78.6,75.0,70.0,65.4,-99.9,84,66,52,30.08,30.00,13,5,21,0.00
2013-10-14,87.0,80.1,73.0,71.0,69.2,67.0,87,70,57,30.04,29.93,7,2,12,0.00
2013-10-15,84.0,78.2,72.0,74.0,71.0,69.0,91,79,69,29.98,29.90,5,2,10,0.02
2013-10-16,89.0,80.7,74.0,73.0,70.8,68.0,87,72,58,29.98,29.92,7,2,9,0.02
2013-10-17,86.0,81.1,75.0,74.0,71.6,69.0,87,73,63,30.00,29.92,6,2,10,0.00
2013-10-18,87.0,81.4,76.0,75.0,73.0,71.0,86,76,66,30.01,29.93,9,4,14,0.00
2013-10-19,86.0,82.0,79.0,75.0,73.8,72.0,85,76,65,29.99,29.91,11,7,17,0.00
2013-10-20,86.0,80.7,78.0,77.0,73.6,-99.9,89,81,74,29.99,29.90,7,4,14,0.00
2013-10-21,87.0,82.7,79.0,78.0,75.9,74.0,87,80,72,30.03,29.93,10,6,14,0.00
2013-10-22,86.0,82.8,80.0,78.0,76.2,73.0,87,81,74,30.00,29.85,13,7,22,0.00
2013-10-23,87.0,79.7,76.0,76.0,72.6,67.0,93,80,63,29.98,29.84,15,5,22,0.01
2013-10-24,80.0,76.5,73.0,69.0,65.6,63.0,79,69,62,30.11,29.96,14,6,23,0.01
2013-10-25,81.0,78.3,77.0,66.0,64.9,63.0,69,64,56,30.18,30.11,14,6,22,0.00
2013-10-26,84.0,78.3,73.0,67.0,63.6,61.0,71,61,53,30.18,30.08,8,3,15,0.00
2013-10-27,83.0,74.1,68.0,68.0,62.3,-99.9,78,69,55,30.12,30.05,12,3,16,0.00
2013-10-28,86.0,78.1,75.0,69.0,64.0,-99.9,73,64,50,30.17,30.07,6,2,11,0.00
2013-10-29,87.0,80.3,76.0,71.0,68.4,65.0,73,68,58,30.20,30.11,12,3,20,0.00
2013-10-30,85.0,79.9,77.0,71.0,68.6,67.0,77,69,59,30.22,30.11,12,5,18,0.00
2013-10-31,83.0,79.5,78.0,74.0,70.9,67.0,85,75,68,30.14,30.03,14,9,19,0.01
2013-11-1,85.0,81.0,79.0,76.0,73.5,72.0,84,78,71,30.04,29.91,12,8,22,0.01
2013-11-2,90.0,79.5,73.0,73.0,70.2,61.0,94,75,49,29.96,29.83,9,3,17,0.00
2013-11-3,79.0,73.1,68.0,66.0,62.1,-99.9,83,71,60,30.05,29.92,16,7,27,0.00
2013-11-4,83.0,76.6,71.0,69.0,65.4,59.0,91,69,56,30.10,30.04,12,6,21,0.36
2013-11-5,81.0,78.1,76.0,72.0,70.0,66.0,82,76,70,30.12,30.04,14,7,23,0.36
2013-11-6,86.0,79.2,76.0,72.0,70.0,68.0,81,74,62,30.10,30.03,10,4,19,0.00
2013-11-7,83.0,76.6,71.0,74.0,70.4,68.0,93,81,68,30.04,29.95,12,4,18,0.00
2013-11-8,84.0,76.3,72.0,74.0,70.8,67.0,94,84,67,30.06,29.96,17,7,26,0.55
2013-11-9,78.0,75.9,73.0,73.0,69.7,-99.9,94,83,79,30.14,30.04,11,4,20,0.62
2013-11-10,85.0,78.7,77.0,75.0,71.1,68.0,83,78,71,30.15,30.08,9,3,15,0.01
2013-11-11,83.0,78.7,76.0,73.0,69.6,65.0,81,74,67,30.14,30.08,6,2,13,0.00
2013-11-12,84.0,78.3,75.0,70.0,68.5,66.0,82,72,61,30.11,29.99,7,2,11,0.00
2013-11-13,76.0,72.5,70.0,68.0,63.8,57.0,90,74,63,30.24,30.02,22,10,37,0.11
2013-11-14,77.0,72.6,70.0,63.0,60.6,58.0,75,66,60,30.27,30.17,15,7,25,0.02
2013-11-15,79.0,76.3,74.0,70.0,67.0,62.0,77,73,67,30.18,30.06,14,10,23,0.00
2013-11-16,79.0,76.8,73.0,73.0,68.7,-99.9,89,78,72,30.13,30.05,16,8,24,0.08
2013-11-17,82.0,79.2,78.0,73.0,71.8,70.0,84,78,71,30.11,30.03,14,9,20,0.01
2013-11-18,82.0,78.4,74.0,74.0,72.0,71.0,90,81,73,30.06,29.95,8,3,13,0.00
2013-11-19,82.0,75.7,73.0,75.0,71.6,70.0,93,87,77,29.97,29.88,14,3,18,0.14
2013-11-20,82.0,75.9,69.0,75.0,71.4,68.0,95,86,76,30.09,29.95,7,3,12,0.07
2013-11-21,78.0,76.1,73.0,74.0,72.0,70.0,95,87,81,30.18,30.07,14,6,24,0.21
2013-11-22,83.0,78.1,76.0,73.0,70.7,68.0,84,78,68,30.19,30.10,10,4,19,0.05
2013-11-23,83.0,77.2,75.0,73.0,68.4,-99.9,84,76,70,30.11,30.01,7,2,13,0.00
2013-11-24,78.0,73.9,69.0,70.0,67.6,65.0,95,81,69,30.17,30.01,18,6,30,0.21
2013-11-25,74.0,72.7,71.0,69.0,65.3,62.0,84,78,71,30.23,30.08,18,9,27,0.02
2013-11-26,81.0,77.2,73.0,75.0,72.8,68.0,92,86,80,30.09,29.85,23,15,34,0.00
2013-11-27,78.0,71.0,57.0,75.0,64.8,50.0,96,82,60,30.14,29.81,13,7,23,0.38
2013-11-28,73.0,61.8,47.0,60.0,53.1,44.0,90,74,57,30.27,30.14,11,6,18,0.03
2013-11-29,76.0,72.1,60.0,64.0,60.8,56.0,87,68,57,30.29,30.22,8,4,20,0.00
2013-11-30,78.0,70.7,62.0,69.0,62.2,-99.9,92,77,67,30.24,30.13,9,4,17,0.01
2013-12-1,79.0,72.7,68.0,70.0,67.2,63.0,97,83,71,30.13,29.96,11,5,17,0.86
2013-12-2,71.0,67.2,63.0,68.0,63.8,61.0,97,89,72,29.97,29.85,12,4,18,0.59
2013-12-3,77.0,70.2,62.0,66.0,63.1,59.0,95,80,55,30.03,29.92,7,2,12,0.01
2013-12-4,81.0,74.4,67.0,69.0,66.6,64.0,90,77,66,30.12,30.01,10,4,18,0.00
2013-12-5,81.0,77.5,74.0,72.0,69.7,67.0,87,77,72,30.19,30.11,13,8,20,0.05
2013-12-6,81.0,78.0,76.0,72.0,69.8,67.0,84,76,68,30.22,30.12,17,11,23,0.05
2013-12-7,79.0,73.7,70.0,72.0,67.8,-99.9,94,84,73,30.25,30.17,11,4,19,0.48
2013-12-8,80.0,78.0,75.0,73.0,70.3,68.0,87,78,71,30.24,30.15,18,10,27,0.13
2013-12-9,81.0,78.2,77.0,72.0,70.3,69.0,82,77,67,30.23,30.15,15,12,21,0.00
2013-12-10,83.0,78.6,76.0,74.0,71.6,69.0,86,80,72,30.19,30.11,12,7,17,0.00
2013-12-11,87.0,77.7,71.0,73.0,71.2,69.0,94,81,60,30.23,30.15,5,2,8,0.00
2013-12-12,77.0,73.0,71.0,71.0,66.6,61.0,95,81,67,30.25,30.16,19,6,29,0.00
2013-12-13,79.0,73.3,70.0,68.0,63.7,59.0,82,72,64,30.23,30.13,17,6,25,0.00
2013-12-14,80.0,76.3,73.0,73.0,69.2,-99.9,90,81,76,30.14,30.02,21,13,28,0.10
2013-12-15,81.0,76.1,71.0,74.0,71.3,66.0,92,85,75,30.09,29.95,12,5,23,0.10
2013-12-16,72.0,68.1,64.0,66.0,61.4,58.0,89,80,73,30.17,30.06,9,5,17,0.00
2013-12-17,71.0,68.6,66.0,60.0,59.5,58.0,78,72,68,30.20,30.18,3,2,5,0.00
2013-12-18,73.0,66.2,60.0,60.0,58.0,56.0,91,76,58,30.27,30.17,11,5,21,0.00
2013-12-19,76.0,72.3,63.0,66.0,61.1,57.0,84,68,60,30.28,30.19,13,5,18,0.00
2013-12-20,78.0,76.4,74.0,70.0,67.6,63.0,80,74,66,30.22,30.14,13,10,19,0.00
2013-12-21,80.0,77.1,76.0,73.0,69.8,-99.9,85,80,76,30.18,30.09,17,14,24,0.00
2013-12-22,81.0,78.2,77.0,74.0,72.4,71.0,86,83,76,30.19,30.11,20,14,27,0.00
2013-12-23,81.0,77.9,74.0,75.0,72.2,70.0,89,83,77,30.21,30.14,15,11,23,0.00
2013-12-24,83.0,72.3,68.0,72.0,67.6,63.0,95,86,65,30.20,30.12,16,5,28,0.02
2013-12-25,77.0,72.6,70.0,68.0,65.9,63.0,91,79,70,30.21,30.13,8,4,18,0.19
2013-12-26,78.0,74.8,72.0,71.0,69.1,66.0,86,82,77,30.20,30.09,5,2,12,0.19
2013-12-27,83.0,76.6,73.0,73.0,70.0,68.0,90,80,69,30.22,30.12,8,2,15,0.10
2013-12-28,78.0,75.3,74.0,73.0,68.5,-99.9,93,82,78,30.21,30.06,22,12,29,0.10
2013-12-29,80.0,76.9,73.0,75.0,72.9,71.0,96,88,78,30.06,29.95,19,10,37,0.00
2013-12-30,76.0,72.0,69.0,72.0,69.0,65.0,96,91,82,30.17,30.01,10,3,19,0.06
2013-12-31,77.0,73.0,68.0,68.0,65.1,63.0,87,77,68,30.25,30.14,9,4,16,0.06
2014-1-1,79.0,75.9,73.0,73.0,70.2,66.0,88,83,75,30.23,30.07,16,10,22,0.00
2014-1-2,84.0,77.9,72.0,73.0,69.6,66.0,89,76,55,30.08,29.89,15,8,26,0.00